Time;durP1;ratioP1;P1;durP2;ratioP2;P2;SDS_P1;SDS_P2;PMS_P1;PMS_P2;Temp;Humidity;BMP_temperature;BMP_pressure;BME280_temperature;BME280_humidity;BME280_pressure;Samples;Min_cycle;Max_cycle;Signal;HPM_P1;HPM_P2
2023/01/24 00:00:52;;;;;;;6.18;5.32;;;8.90;99.90;;;;;;5007260;28;20097;-71
2023/01/24 00:03:20;;;;;;;6.63;5.00;;;8.80;99.90;;;;;;5014354;28;20493;-70
2023/01/24 00:05:48;;;;;;;5.70;5.10;;;8.80;99.90;;;;;;5013843;28;20042;-70
2023/01/24 00:08:19;;;;;;;;;;;8.70;99.90;;;;;;5016723;28;20136;-70
2023/01/24 00:10:47;;;;;;;6.13;4.80;;;8.60;99.90;;;;;;5016131;28;19928;-70
2023/01/24 00:13:16;;;;;;;6.68;5.32;;;8.40;99.90;;;;;;4993701;28;20046;-70
2023/01/24 00:15:43;;;;;;;7.55;5.50;;;8.50;99.90;;;;;;5010628;28;20062;-68
2023/01/24 00:18:10;;;;;;;5.85;5.22;;;8.70;99.90;;;;;;5012664;28;20042;-70
2023/01/24 00:20:37;;;;;;;7.78;5.10;;;8.60;99.90;;;;;;4993414;28;20096;-70
2023/01/24 00:23:04;;;;;;;6.07;5.22;;;8.60;99.90;;;;;;5020907;28;20053;-70
2023/01/24 00:25:31;;;;;;;7.45;5.47;;;8.30;99.90;;;;;;5014268;28;20038;-70
2023/01/24 00:27:59;;;;;;;6.30;5.13;;;8.30;99.90;;;;;;5015477;28;20050;-70
2023/01/24 00:30:26;;;;;;;7.28;5.40;;;8.10;99.90;;;;;;5014509;28;20038;-70
2023/01/24 00:32:53;;;;;;;7.35;5.72;;;8.20;99.90;;;;;;5013714;28;20096;-69
2023/01/24 00:35:20;;;;;;;5.80;5.18;;;8.50;99.90;;;;;;5013725;28;20109;-70
2023/01/24 00:37:48;;;;;;;6.78;5.43;;;8.70;99.90;;;;;;5036692;22;20057;-70
2023/01/24 00:40:15;;;;;;;5.65;4.97;;;8.60;99.90;;;;;;5032573;28;20080;-68
2023/01/24 00:42:42;;;;;;;5.80;5.15;;;8.40;99.90;;;;;;5016150;28;20143;-70
2023/01/24 00:45:10;;;;;;;6.50;4.93;;;8.30;99.90;;;;;;5038817;28;20621;-69
2023/01/24 00:47:37;;;;;;;6.25;5.10;;;8.40;99.90;;;;;;5038564;28;20053;-70
2023/01/24 00:50:05;;;;;;;7.13;5.00;;;8.60;99.90;;;;;;5032390;28;20045;-71
2023/01/24 00:52:35;;;;;;;6.63;5.20;;;8.70;99.90;;;;;;5033542;28;20049;-71
2023/01/24 00:55:02;;;;;;;6.63;5.40;;;8.80;99.90;;;;;;5012571;28;20120;-71
2023/01/24 00:57:30;;;;;;;7.28;5.10;;;8.80;99.90;;;;;;5026442;28;20057;-70
2023/01/24 00:59:57;;;;;;;6.57;5.30;;;8.70;99.90;;;;;;5033179;28;20103;-71
2023/01/24 01:02:35;;;;;;;5.78;4.93;;;8.80;99.90;;;;;;5028984;28;20045;-71
2023/01/24 01:05:10;;;;;;;5.22;4.72;;;8.60;99.90;;;;;;5012538;28;20042;-70
2023/01/24 01:07:38;;;;;;;6.85;5.47;;;8.40;99.90;;;;;;5029900;28;20560;-71
2023/01/24 01:10:08;;;;;;;6.40;5.40;;;8.40;99.90;;;;;;5006919;28;20133;-71
2023/01/24 01:12:36;;;;;;;6.00;5.40;;;8.60;99.90;;;;;;5011159;28;20377;-71
2023/01/24 01:15:03;;;;;;;8.43;5.43;;;8.70;99.90;;;;;;5011600;28;20049;-71
2023/01/24 01:17:31;;;;;;;6.07;5.05;;;8.80;99.90;;;;;;5013005;28;20105;-71
2023/01/24 01:19:58;;;;;;;7.45;5.00;;;8.80;99.90;;;;;;5012090;28;20126;-71
2023/01/24 01:22:26;;;;;;;5.95;5.10;;;8.70;99.90;;;;;;5013223;28;20038;-70
2023/01/24 01:24:53;;;;;;;6.43;5.00;;;8.70;99.90;;;;;;5012612;28;20045;-71
2023/01/24 01:27:20;;;;;;;6.40;5.13;;;8.80;99.90;;;;;;5007260;28;20057;-70
2023/01/24 01:29:48;;;;;;;6.65;5.65;;;8.50;99.90;;;;;;4997828;28;20046;-71
2023/01/24 01:32:15;;;;;;;7.15;5.82;;;8.70;99.90;;;;;;5018931;28;20042;-71
2023/01/24 01:34:42;;;;;;;7.65;6.28;;;8.60;99.90;;;;;;5018014;28;20528;-70
2023/01/24 01:37:10;;;;;;;8.88;6.05;;;8.50;99.90;;;;;;5007835;28;20054;-71
2023/01/24 01:39:37;;;;;;;7.13;5.97;;;8.70;99.90;;;;;;5019010;28;20063;-71
2023/01/24 01:42:04;;;;;;;8.65;6.40;;;8.60;99.90;;;;;;5019108;28;20107;-72
2023/01/24 01:44:38;;;;;;;7.68;6.40;;;8.60;99.90;;;;;;5012074;28;20077;-70
2023/01/24 01:47:24;;;;;;;9.05;6.75;;;8.50;99.90;;;;;;5011251;28;20394;-70
2023/01/24 01:50:06;;;;;;;10.68;7.63;;;8.60;99.90;;;;;;5012115;28;20096;-71
2023/01/24 01:52:38;;;;;;;8.68;7.20;;;8.60;99.90;;;;;;5013315;28;20832;-71
2023/01/24 01:55:12;;;;;;;7.78;6.63;;;8.40;99.90;;;;;;5012270;28;20441;-71
2023/01/24 01:57:40;;;;;;;9.30;7.43;;;8.40;99.90;;;;;;5012098;28;20034;-70
2023/01/24 02:00:13;;;;;;;8.85;7.15;;;8.50;99.90;;;;;;5012039;28;20038;-71
2023/01/24 02:02:44;;;;;;;8.50;6.68;;;8.60;99.90;;;;;;5026482;28;20108;-70
2023/01/24 02:05:15;;;;;;;8.25;7.00;;;8.50;99.90;;;;;;5012209;28;20049;-70
2023/01/24 02:07:51;;;;;;;;;;;8.60;99.90;;;;;;5007910;28;20623;-71
2023/01/24 02:10:23;;;;;;;8.70;6.80;;;8.30;99.90;;;;;;5004437;28;19925;-70
2023/01/24 02:12:54;;;;;;;8.20;6.85;;;8.30;99.90;;;;;;5011802;28;20050;-71
2023/01/24 02:18:10;;;;;;;8.43;6.60;;;8.50;99.90;;;;;;5021065;28;20045;-71
2023/01/24 02:20:48;;;;;;;7.60;6.43;;;8.40;99.90;;;;;;5011496;28;20052;-71
2023/01/24 02:23:25;;;;;;;7.90;6.22;;;8.40;99.90;;;;;;5011541;28;20049;-72
2023/01/24 02:26:12;;;;;;;6.82;5.80;;;8.40;99.90;;;;;;5011549;28;20113;-71
2023/01/24 02:28:42;;;;;;;7.85;6.18;;;8.50;99.90;;;;;;5010370;28;20045;-70
2023/01/24 02:31:09;;;;;;;;;;;8.50;99.90;;;;;;5011195;28;20433;-70
2023/01/24 02:33:37;;;;;;;8.07;6.40;;;8.60;99.90;;;;;;5011648;28;19964;-70
2023/01/24 02:36:19;;;;;;;7.60;6.35;;;8.70;99.90;;;;;;5011248;28;20069;-71
2023/01/24 02:38:54;;;;;;;8.48;6.60;;;8.60;99.90;;;;;;4998736;28;20437;-71
2023/01/24 02:41:28;;;;;;;8.57;6.32;;;8.70;99.90;;;;;;5011490;28;20052;-71
2023/01/24 02:44:01;;;;;;;8.82;7.03;;;8.70;99.90;;;;;;5011521;28;20038;-71
2023/01/24 02:46:36;;;;;;;7.25;6.30;;;8.70;99.90;;;;;;5011830;28;20042;-70
2023/01/24 02:49:07;;;;;;;9.52;6.85;;;8.80;99.90;;;;;;5010528;28;20050;-68
2023/01/24 02:54:20;;;;;;;8.07;6.18;;;8.60;99.90;;;;;;5006581;28;20121;-69
2023/01/24 02:59:34;;;;;;;7.90;6.50;;;8.60;99.90;;;;;;5010174;28;20042;-69
2023/01/24 03:02:01;;;;;;;8.05;6.40;;;8.60;99.90;;;;;;5010022;28;20497;-68
2023/01/24 03:04:29;;;;;;;8.57;6.65;;;8.40;99.90;;;;;;5010183;28;20038;-71
2023/01/24 03:06:56;;;;;;;9.35;6.82;;;8.30;99.90;;;;;;5007241;28;20417;-68
2023/01/24 03:09:33;;;;;;;9.65;6.82;;;8.40;99.90;;;;;;5008943;28;20034;-71
2023/01/24 03:34:30;;;;;;;7.30;6.00;;;8.60;99.90;;;;;;5021357;28;20379;-69
2023/01/24 03:36:58;;;;;;;6.93;5.90;;;8.60;99.90;;;;;;5031992;28;20057;-69
2023/01/24 03:42:12;;;;;;;7.90;6.10;;;8.30;99.90;;;;;;5014707;28;20038;-69
2023/01/24 03:44:39;;;;;;;6.97;6.15;;;8.20;99.90;;;;;;5015875;28;20097;-69
2023/01/24 03:47:06;;;;;;;7.43;5.80;;;8.20;99.90;;;;;;5025173;28;20389;-71
2023/01/24 03:52:28;;;;;;;7.63;5.90;;;8.40;99.90;;;;;;5013422;28;19922;-71
2023/01/24 03:55:00;;;;;;;7.45;5.93;;;8.40;99.90;;;;;;5014417;28;20117;-71
2023/01/24 03:57:28;;;;;;;9.15;6.13;;;8.30;99.90;;;;;;5010894;28;20034;-70
2023/01/24 03:59:55;;;;;;;7.28;5.90;;;8.20;99.90;;;;;;5014315;28;20520;-70
2023/01/24 04:02:23;;;;;;;7.53;6.13;;;8.10;99.90;;;;;;5004376;28;20038;-70
2023/01/24 04:07:36;;;;;;;7.15;5.78;;;7.90;99.90;;;;;;5017203;28;20112;-70
2023/01/24 04:10:04;;;;;;;6.72;5.55;;;8.10;99.90;;;;;;5013028;28;20042;-70
2023/01/24 04:12:31;;;;;;;5.97;5.07;;;8.20;99.90;;;;;;5019782;28;20050;-70
2023/01/24 04:14:59;;;;;;;7.70;5.32;;;8.30;99.90;;;;;;5004416;28;20038;-71
2023/01/24 04:17:26;;;;;;;6.15;5.15;;;8.30;99.90;;;;;;5012965;28;20042;-71
2023/01/24 04:19:53;;;;;;;6.50;5.20;;;8.40;99.90;;;;;;5013940;28;20045;-70
2023/01/24 04:22:21;;;;;;;5.80;4.70;;;8.30;99.90;;;;;;5012717;28;20044;-71
2023/01/24 04:24:48;;;;;;;6.82;4.80;;;8.40;99.90;;;;;;5014012;28;20401;-71
2023/01/24 04:27:15;;;;;;;5.57;4.97;;;8.30;99.90;;;;;;5013572;28;20132;-71
2023/01/24 04:29:42;;;;;;;5.72;4.72;;;8.30;99.90;;;;;;5014019;28;20045;-71
2023/01/24 04:32:09;;;;;;;6.30;4.90;;;8.20;99.90;;;;;;5012649;28;20076;-70
2023/01/24 04:34:37;;;;;;;8.43;4.90;;;8.20;99.90;;;;;;5012501;28;20440;-69
2023/01/24 04:37:04;;;;;;;5.32;4.53;;;8.30;99.90;;;;;;5012836;28;20104;-70
2023/01/24 04:39:31;;;;;;;5.43;4.90;;;8.10;99.90;;;;;;5013793;28;20050;-70
2023/01/24 04:41:59;;;;;;;5.47;4.60;;;8.20;99.90;;;;;;5019574;28;20091;-69
2023/01/24 04:44:26;;;;;;;5.85;4.57;;;8.30;99.90;;;;;;5020256;28;20033;-70
2023/01/24 04:46:53;;;;;;;5.55;4.80;;;8.30;99.90;;;;;;5011222;28;20092;-70
2023/01/24 04:49:24;;;;;;;5.13;4.30;;;8.30;99.90;;;;;;5012008;28;20046;-70
2023/01/24 04:51:51;;;;;;;5.60;4.70;;;8.40;99.90;;;;;;5013693;28;20115;-71
2023/01/24 04:54:19;;;;;;;5.88;4.70;;;8.50;99.90;;;;;;5012485;28;20056;-71
2023/01/24 04:56:46;;;;;;;4.90;4.22;;;8.30;99.90;;;;;;4995891;28;20073;-71
2023/01/24 04:59:14;;;;;;;5.70;4.60;;;8.30;99.90;;;;;;5007709;28;20046;-72
2023/01/24 05:01:41;;;;;;;5.57;4.53;;;8.30;99.90;;;;;;5006045;28;20112;-72
2023/01/24 05:04:08;;;;;;;5.30;4.38;;;8.20;99.90;;;;;;4994102;28;20064;-70
2023/01/24 05:06:35;;;;;;;5.05;4.07;;;8.20;99.90;;;;;;5011795;28;20041;-71
2023/01/24 05:09:03;;;;;;;5.50;4.43;;;8.10;99.90;;;;;;5012991;28;20445;-72
2023/01/24 05:11:31;;;;;;;4.95;4.30;;;8.20;99.90;;;;;;4991644;28;20551;-70
2023/01/24 05:13:58;;;;;;;7.63;4.88;;;8.30;99.90;;;;;;5008265;28;20096;-71
2023/01/24 05:16:25;;;;;;;5.20;4.50;;;8.30;99.90;;;;;;5011709;28;20038;-71
2023/01/24 05:18:53;;;;;;;5.38;4.80;;;8.30;99.90;;;;;;4999305;28;20136;-71
2023/01/24 05:21:20;;;;;;;6.95;5.15;;;8.40;99.90;;;;;;5021257;28;20046;-72
2023/01/24 05:23:52;;;;;;;9.90;6.13;;;8.30;99.90;;;;;;4991759;28;20046;-72
2023/01/24 05:26:24;;;;;;;8.80;5.78;;;8.40;99.90;;;;;;4987193;28;20568;-71
2023/01/24 05:28:52;;;;;;;9.27;6.32;;;8.40;99.90;;;;;;5012563;28;20397;-71
2023/01/24 05:31:19;;;;;;;7.03;5.47;;;8.40;99.90;;;;;;5000293;28;20516;-70
2023/01/24 05:33:47;;;;;;;6.78;5.43;;;8.40;99.90;;;;;;5006198;28;20201;-70
2023/01/24 05:36:20;;;;;;;9.70;6.18;;;8.50;99.90;;;;;;5005088;28;20057;-70
2023/01/24 05:38:47;;;;;;;6.80;5.00;;;8.50;99.90;;;;;;5006141;28;20584;-71
2023/01/24 05:41:17;;;;;;;4.82;4.22;;;8.50;99.90;;;;;;4997590;28;20034;-71
2023/01/24 05:43:45;;;;;;;4.90;3.90;;;8.40;99.90;;;;;;4992296;28;20042;-70
2023/01/24 05:46:16;;;;;;;4.43;3.90;;;8.40;99.90;;;;;;5005670;28;20050;-70
2023/01/24 05:48:46;;;;;;;4.13;3.63;;;8.40;99.90;;;;;;5000515;28;20065;-70
2023/01/24 05:51:16;;;;;;;4.30;3.85;;;8.30;99.90;;;;;;4997670;28;20070;-72
2023/01/24 05:53:44;;;;;;;4.60;4.00;;;8.40;99.90;;;;;;5004896;28;20073;-71
2023/01/24 05:56:14;;;;;;;4.65;3.83;;;8.40;99.90;;;;;;4989289;28;20521;-70
2023/01/24 05:58:43;;;;;;;4.60;4.10;;;8.30;99.90;;;;;;4999455;28;20039;-70
2023/01/24 06:01:22;;;;;;;5.15;3.80;;;8.40;99.90;;;;;;5005570;28;20449;-72
2023/01/24 06:03:53;;;;;;;4.32;3.92;;;8.30;99.90;;;;;;4991202;28;20046;-71
2023/01/24 06:06:24;;;;;;;4.80;3.95;;;8.20;99.90;;;;;;4998062;28;20038;-70
2023/01/24 06:08:52;;;;;;;4.72;3.88;;;8.00;99.90;;;;;;5012308;28;20042;-71
2023/01/24 06:11:22;;;;;;;4.80;4.18;;;7.90;99.90;;;;;;5011619;28;20048;-70
2023/01/24 06:13:54;;;;;;;5.00;4.20;;;8.00;99.90;;;;;;5009369;28;20053;-71
2023/01/24 06:16:24;;;;;;;4.55;3.90;;;8.20;99.90;;;;;;5010800;28;20405;-71
2023/01/24 06:18:52;;;;;;;5.35;4.25;;;8.20;99.90;;;;;;5028677;28;20041;-71
2023/01/24 06:21:41;;;;;;;4.75;4.25;;;8.20;99.90;;;;;;5020486;28;20033;-70
2023/01/24 06:24:21;;;;;;;4.80;4.20;;;8.20;99.90;;;;;;5011868;28;20655;-72
2023/01/24 06:26:50;;;;;;;4.90;4.20;;;8.20;99.90;;;;;;5026338;28;20046;-71
2023/01/24 06:29:19;;;;;;;5.00;4.30;;;8.30;99.90;;;;;;4988778;28;20042;-72
2023/01/24 06:31:49;;;;;;;5.10;4.32;;;8.30;99.90;;;;;;4993121;28;20046;-70
2023/01/24 06:34:21;;;;;;;;;;;8.20;99.90;;;;;;4998823;28;20050;-72
2023/01/24 06:37:00;;;;;;;19.38;11.45;;;8.30;99.90;;;;;;5008595;28;19935;-69
2023/01/24 06:39:28;;;;;;;42.88;27.67;;;8.40;99.90;;;;;;5008234;28;20050;-67
2023/01/24 06:41:56;;;;;;;48.85;31.50;;;8.50;99.90;;;;;;4996794;28;20038;-69
2023/01/24 06:44:23;;;;;;;14.45;9.77;;;8.50;99.90;;;;;;5006857;28;20575;-71
2023/01/24 06:46:51;;;;;;;14.20;8.15;;;8.40;99.90;;;;;;5001528;28;20144;-68
2023/01/24 06:49:18;;;;;;;51.08;28.10;;;8.20;99.90;;;;;;5011170;28;20038;-70
2023/01/24 06:51:52;;;;;;;17.52;12.45;;;8.10;99.90;;;;;;5002954;28;20591;-71
2023/01/24 06:54:19;;;;;;;7.70;6.20;;;8.30;99.90;;;;;;5009767;28;20045;-72
2023/01/24 06:56:47;;;;;;;6.40;5.07;;;8.30;99.90;;;;;;4996797;28;20038;-70
2023/01/24 06:59:14;;;;;;;6.65;5.10;;;8.30;99.90;;;;;;4997482;28;20402;-71
2023/01/24 07:01:41;;;;;;;5.47;4.28;;;8.20;99.90;;;;;;5017610;28;20092;-70
2023/01/24 07:04:09;;;;;;;5.57;4.50;;;8.20;99.90;;;;;;4995382;28;20096;-71
2023/01/24 07:06:36;;;;;;;5.60;4.28;;;8.10;99.90;;;;;;5003351;28;20052;-71
2023/01/24 07:09:03;;;;;;;19.38;10.55;;;8.00;99.90;;;;;;5009330;28;20489;-71
2023/01/24 07:11:31;;;;;;;8.38;5.35;;;8.90;99.90;;;;;;5014776;28;20042;-71
2023/01/24 07:13:58;;;;;;;6.72;4.88;;;9.10;99.90;;;;;;5014908;28;20120;-72
2023/01/24 07:16:25;;;;;;;7.20;4.70;;;8.80;99.90;;;;;;5014191;28;20077;-71
2023/01/24 07:18:53;;;;;;;5.25;4.40;;;8.40;99.90;;;;;;5013870;28;20507;-71
2023/01/24 07:21:21;;;;;;;8.48;4.70;;;7.90;99.90;;;;;;5014976;28;20046;-70
2023/01/24 07:23:55;;;;;;;5.68;4.55;;;7.40;99.90;;;;;;5013448;28;20441;-71
2023/01/24 07:26:22;;;;;;;5.47;4.60;;;7.40;99.90;;;;;;5010525;28;20437;-73
2023/01/24 07:28:50;;;;;;;5.85;4.78;;;7.50;99.90;;;;;;5013486;28;20041;-71
2023/01/24 07:31:18;;;;;;;5.20;4.70;;;7.20;99.90;;;;;;5013153;28;20046;-71
2023/01/24 07:33:45;;;;;;;4.88;4.38;;;7.30;99.90;;;;;;5013494;28;20092;-71
2023/01/24 07:36:14;;;;;;;6.00;4.68;;;7.10;99.90;;;;;;5013508;28;20076;-71
2023/01/24 07:38:42;;;;;;;5.60;4.40;;;7.20;99.90;;;;;;5012681;28;20039;-71
2023/01/24 07:41:10;;;;;;;6.00;5.00;;;7.40;99.90;;;;;;5007468;28;20100;-70
2023/01/24 07:43:37;;;;;;;4.93;4.43;;;7.20;99.90;;;;;;5013233;28;20060;-71
2023/01/24 07:46:05;;;;;;;5.32;4.80;;;7.20;99.90;;;;;;5011887;28;20050;-71
2023/01/24 07:48:36;;;;;;;6.35;4.97;;;7.50;99.90;;;;;;5010563;28;20054;-71
2023/01/24 07:51:03;;;;;;;5.35;4.63;;;7.60;99.90;;;;;;5007781;28;20038;-72
2023/01/24 07:53:31;;;;;;;5.75;4.93;;;7.90;99.90;;;;;;5009969;28;20508;-72
2023/01/24 07:56:00;;;;;;;6.53;4.90;;;8.00;99.90;;;;;;5009580;28;20034;-71
2023/01/24 07:58:30;;;;;;;5.97;4.82;;;7.80;99.90;;;;;;5014611;28;20049;-72
2023/01/24 08:00:58;;;;;;;5.97;4.60;;;7.80;99.90;;;;;;4995531;28;20034;-72
2023/01/24 08:03:25;;;;;;;5.45;4.95;;;7.70;99.90;;;;;;5014356;28;20046;-71
2023/01/24 08:05:53;;;;;;;6.10;4.88;;;7.70;99.90;;;;;;5013213;28;20077;-71
2023/01/24 08:08:20;;;;;;;5.80;4.90;;;7.60;99.90;;;;;;5014617;28;20061;-70
2023/01/24 08:10:47;;;;;;;6.63;5.20;;;7.50;99.90;;;;;;5013169;28;20452;-71
2023/01/24 08:13:15;;;;;;;8.05;5.03;;;7.60;99.90;;;;;;5009328;28;20046;-73
2023/01/24 08:15:43;;;;;;;7.07;5.40;;;7.80;99.90;;;;;;5010097;28;20125;-71
2023/01/24 08:18:10;;;;;;;7.75;5.40;;;7.90;99.90;;;;;;5014212;28;20045;-71
2023/01/24 08:20:38;;;;;;;7.80;5.80;;;7.90;99.90;;;;;;5013872;28;20061;-71
2023/01/24 08:23:05;;;;;;;7.25;5.90;;;7.80;99.90;;;;;;5013775;28;20041;-70
2023/01/24 08:25:33;;;;;;;7.22;5.90;;;8.00;99.90;;;;;;5013823;28;20219;-71
2023/01/24 08:28:01;;;;;;;8.13;6.18;;;8.10;99.90;;;;;;5009316;28;20049;-72
2023/01/24 08:30:28;;;;;;;7.25;6.20;;;8.20;99.90;;;;;;5012167;28;20470;-71
2023/01/24 08:33:00;;;;;;;6.72;5.82;;;8.20;99.90;;;;;;5012303;28;20104;-71
2023/01/24 08:35:28;;;;;;;7.90;5.95;;;8.10;99.90;;;;;;5012460;28;20077;-71
2023/01/24 08:37:56;;;;;;;6.90;5.88;;;8.10;99.90;;;;;;5014013;28;20054;-71
2023/01/24 08:40:24;;;;;;;7.20;5.78;;;8.00;99.90;;;;;;5008936;28;20129;-71
2023/01/24 08:42:52;;;;;;;8.07;6.03;;;8.20;99.90;;;;;;4989792;28;20053;-71
2023/01/24 08:45:19;;;;;;;7.45;5.78;;;8.30;99.90;;;;;;5013687;28;20183;-73
2023/01/24 08:47:52;;;;;;;7.20;5.72;;;8.00;99.90;;;;;;5013579;28;20149;-71
2023/01/24 08:50:21;;;;;;;9.25;6.40;;;7.90;99.90;;;;;;5013406;28;20112;-72
2023/01/24 08:52:49;;;;;;;7.57;5.85;;;7.90;99.90;;;;;;5014043;28;20038;-71
2023/01/24 08:55:16;;;;;;;11.35;5.65;;;7.80;99.90;;;;;;5013462;28;20069;-71
2023/01/24 08:57:43;;;;;;;6.43;5.50;;;7.80;99.90;;;;;;5013215;28;20052;-72
2023/01/24 09:00:11;;;;;;;8.52;6.35;;;7.80;99.90;;;;;;5012114;28;20141;-72
2023/01/24 09:02:38;;;;;;;8.57;6.72;;;8.00;99.90;;;;;;5016065;28;20048;-71
2023/01/24 09:05:07;;;;;;;11.15;7.00;;;7.80;99.90;;;;;;5012920;28;20041;-72
2023/01/24 09:07:40;;;;;;;9.60;6.18;;;8.00;99.90;;;;;;5034687;22;20069;-71
2023/01/24 09:10:08;;;;;;;11.85;9.30;;;8.30;99.90;;;;;;5005295;28;20051;-71
2023/01/24 09:12:36;;;;;;;10.35;7.75;;;8.40;99.90;;;;;;5011528;28;20069;-72
2023/01/24 09:15:04;;;;;;;8.85;7.05;;;8.60;99.90;;;;;;5012072;28;20040;-72
2023/01/24 09:17:34;;;;;;;9.43;7.40;;;8.60;99.90;;;;;;5028005;28;20452;-72
2023/01/24 09:20:01;;;;;;;10.07;6.93;;;8.60;99.90;;;;;;5035645;22;20045;-72
2023/01/24 09:22:28;;;;;;;8.02;6.15;;;8.60;99.90;;;;;;5025328;28;20523;-72
2023/01/24 09:24:58;;;;;;;11.88;6.22;;;8.30;99.90;;;;;;5025936;28;20135;-71
2023/01/24 09:27:25;;;;;;;8.82;6.95;;;8.30;99.90;;;;;;4995703;28;20042;-72
2023/01/24 09:29:52;;;;;;;8.82;6.53;;;8.50;99.90;;;;;;5024956;28;20384;-72
2023/01/24 09:32:20;;;;;;;9.27;6.72;;;8.50;99.90;;;;;;5019268;28;20030;-70
2023/01/24 09:34:48;;;;;;;8.75;6.93;;;8.60;99.90;;;;;;5032837;28;20037;-72
2023/01/24 09:37:20;;;;;;;9.80;7.00;;;8.70;99.90;;;;;;5032734;28;20072;-72
2023/01/24 09:39:48;;;;;;;13.80;8.93;;;8.80;99.90;;;;;;5032548;28;20475;-71
2023/01/24 09:42:40;;;;;;;14.50;8.75;;;8.80;99.90;;;;;;5011135;28;20033;-73
2023/01/24 09:45:33;;;;;;;11.40;8.07;;;8.90;99.90;;;;;;5030522;28;20049;-71
2023/01/24 09:48:05;;;;;;;12.60;8.35;;;9.00;99.90;;;;;;5032046;28;20041;-73
2023/01/24 09:50:48;;;;;;;14.20;7.95;;;8.90;99.90;;;;;;5032184;28;20041;-72
2023/01/24 09:53:25;;;;;;;10.45;7.57;;;8.90;99.90;;;;;;5030785;28;20104;-72
2023/01/24 09:55:53;;;;;;;11.40;8.68;;;9.00;99.90;;;;;;5030009;28;20041;-71
2023/01/24 09:58:39;;;;;;;11.25;8.75;;;8.90;99.90;;;;;;4999570;28;20103;-71
2023/01/24 10:01:13;;;;;;;13.15;8.82;;;8.90;99.90;;;;;;5011426;28;20044;-72
2023/01/24 10:03:42;;;;;;;15.07;11.02;;;9.00;99.90;;;;;;5024357;28;20424;-72
2023/01/24 10:06:26;;;;;;;14.27;9.90;;;9.10;99.90;;;;;;5030870;28;20088;-72
2023/01/24 10:09:29;;;;;;;16.30;9.32;;;9.10;99.90;;;;;;5030734;28;20084;-72
2023/01/24 10:12:17;;;;;;;12.65;8.50;;;9.20;99.90;;;;;;5007224;28;20445;-71
2023/01/24 10:14:51;;;;;;;12.02;8.15;;;9.20;99.90;;;;;;5001149;28;20046;-72
2023/01/24 10:17:39;;;;;;;12.25;8.50;;;9.20;99.90;;;;;;5010620;28;20492;-73
2023/01/24 10:20:32;;;;;;;11.98;8.80;;;9.10;99.90;;;;;;5027081;28;20421;-72
2023/01/24 10:23:12;;;;;;;11.82;8.25;;;8.90;99.90;;;;;;5007278;28;20052;-71
2023/01/24 10:25:48;;;;;;;14.82;8.40;;;9.00;99.90;;;;;;5025886;28;20033;-71
2023/01/24 10:28:23;;;;;;;9.95;7.25;;;9.10;99.90;;;;;;5012170;28;20113;-71
2023/01/24 10:30:58;;;;;;;10.32;7.53;;;9.20;99.90;;;;;;5019276;28;20053;-71
2023/01/24 10:33:31;;;;;;;11.07;8.60;;;9.20;99.90;;;;;;5007043;28;20050;-71
2023/01/24 10:36:08;;;;;;;13.75;10.20;;;9.30;99.90;;;;;;5026586;28;20037;-71
2023/01/24 10:38:37;;;;;;;19.60;13.38;;;9.50;99.90;;;;;;5009958;28;20052;-72
2023/01/24 10:41:14;;;;;;;19.40;11.63;;;9.60;99.90;;;;;;5010311;28;20052;-73
2023/01/24 10:43:53;;;;;;;11.77;8.88;;;9.60;99.90;;;;;;5027023;28;20050;-71
2023/01/24 10:47:00;;;;;;;11.07;7.75;;;9.60;99.90;;;;;;4998030;28;20440;-71
2023/01/24 10:49:31;;;;;;;11.00;6.95;;;9.80;99.90;;;;;;5015676;28;20053;-72
2023/01/24 10:52:20;;;;;;;10.00;7.00;;;9.90;99.90;;;;;;4994331;28;20133;-72
2023/01/24 10:54:49;;;;;;;10.00;6.88;;;10.00;99.90;;;;;;5023307;28;20121;-72
2023/01/24 10:57:25;;;;;;;9.45;7.40;;;10.10;99.90;;;;;;5027031;28;20050;-71
2023/01/24 10:59:53;;;;;;;9.68;6.45;;;10.40;99.90;;;;;;5027449;28;20061;-72
2023/01/24 11:02:23;;;;;;;10.38;6.45;;;10.40;99.90;;;;;;4987031;28;20097;-67
2023/01/24 11:05:01;;;;;;;9.60;7.30;;;10.60;99.90;;;;;;5012161;28;20130;-69
2023/01/24 11:07:32;;;;;;;9.88;6.80;;;10.70;99.90;;;;;;5023612;28;20034;-69
2023/01/24 11:10:01;;;;;;;10.00;7.00;;;10.70;99.90;;;;;;5026516;28;20151;-69
2023/01/24 11:12:28;;;;;;;9.27;7.25;;;10.70;99.90;;;;;;5011314;28;20030;-72
2023/01/24 11:14:55;;;;;;;12.85;8.00;;;10.70;99.90;;;;;;5011683;28;20041;-72
2023/01/24 11:17:34;;;;;;;10.40;7.60;;;10.60;99.90;;;;;;5011343;28;20045;-72
2023/01/24 11:20:20;;;;;;;10.82;8.25;;;10.70;99.90;;;;;;5006123;28;20100;-71
2023/01/24 11:22:51;;;;;;;12.23;8.73;;;10.80;99.90;;;;;;4974647;28;20042;-71
2023/01/24 11:25:18;;;;;;;13.57;8.35;;;10.90;99.90;;;;;;5020102;28;20049;-72
2023/01/24 11:27:50;;;;;;;12.68;8.05;;;10.90;99.90;;;;;;4997192;28;20069;-73
2023/01/24 11:30:21;;;;;;;11.85;8.40;;;10.90;99.90;;;;;;5007650;28;20512;-73
2023/01/24 11:33:00;;;;;;;12.25;8.50;;;11.10;99.90;;;;;;5005794;28;20045;-71
2023/01/24 11:35:37;;;;;;;13.13;7.35;;;11.30;99.90;;;;;;5005461;28;20550;-73
2023/01/24 11:38:28;;;;;;;9.73;7.43;;;11.50;99.90;;;;;;4998494;28;20050;-71
2023/01/24 11:40:59;;;;;;;11.82;7.10;;;11.50;99.90;;;;;;5010948;28;20038;-71
2023/01/24 11:43:47;;;;;;;11.10;7.20;;;11.40;99.90;;;;;;4990156;28;20517;-73
2023/01/24 11:47:06;;;;;;;17.35;8.60;;;11.20;99.90;;;;;;5015739;28;20057;-71
2023/01/24 11:49:51;;;;;;;10.48;7.68;;;11.10;99.90;;;;;;4961407;28;20125;-73
2023/01/24 11:52:39;;;;;;;9.98;7.43;;;10.90;99.90;;;;;;5012719;28;20069;-77
2023/01/24 11:55:46;;;;;;;10.40;6.65;;;11.00;99.90;;;;;;5012846;28;20056;-72
2023/01/24 11:58:17;;;;;;;10.35;7.30;;;10.70;99.90;;;;;;5001234;28;20433;-70
2023/01/24 12:01:10;;;;;;;10.52;6.88;;;10.90;99.90;;;;;;5006031;28;20053;-70
2023/01/24 12:03:38;;;;;;;10.20;7.80;;;11.00;99.90;;;;;;5012564;28;20762;-70
2023/01/24 12:06:11;;;;;;;14.02;9.82;;;11.00;99.90;;;;;;4996486;28;20047;-72
2023/01/24 12:08:57;;;;;;;9.75;7.15;;;11.10;99.90;;;;;;4998792;28;20034;-72
2023/01/24 12:12:03;;;;;;;11.02;6.57;;;11.00;99.90;;;;;;5008398;28;20140;-71
2023/01/24 12:15:03;;;;;;;10.45;7.15;;;10.90;99.90;;;;;;4994233;28;20524;-74
2023/01/24 12:18:13;;;;;;;11.27;7.05;;;10.90;99.90;;;;;;4991536;28;20224;-72
2023/01/24 12:21:08;;;;;;;9.90;7.05;;;11.10;99.90;;;;;;5003432;28;20113;-70
2023/01/24 12:24:00;;;;;;;10.07;6.50;;;11.20;99.90;;;;;;4985806;28;20064;-74
2023/01/24 12:26:57;;;;;;;10.02;7.63;;;11.10;99.90;;;;;;4997684;28;20490;-73
2023/01/24 12:29:42;;;;;;;12.73;7.95;;;11.30;99.90;;;;;;4994959;28;20054;-72
2023/01/24 12:32:22;;;;;;;9.02;6.50;;;11.30;99.90;;;;;;4991452;28;20042;-71
2023/01/24 12:34:57;;;;;;;9.70;6.38;;;11.20;99.90;;;;;;5000046;28;20536;-71
2023/01/24 12:37:27;;;;;;;9.02;6.68;;;11.10;99.90;;;;;;4992958;28;20444;-71
2023/01/24 12:40:13;;;;;;;;;;;11.20;99.90;;;;;;5011369;28;20048;-72
2023/01/24 12:42:53;;;;;;;10.55;6.95;;;11.10;99.90;;;;;;5005745;28;19922;-70
2023/01/24 12:45:28;;;;;;;11.18;6.60;;;11.20;99.90;;;;;;4993567;28;20057;-72
2023/01/24 12:48:14;;;;;;;8.75;6.07;;;11.50;99.90;;;;;;4998686;28;20054;-74
2023/01/24 12:50:59;;;;;;;8.15;6.22;;;12.10;99.90;;;;;;4995380;28;20038;-73
2023/01/24 12:53:32;;;;;;;10.63;6.80;;;11.90;99.90;;;;;;4995987;28;20093;-73
2023/01/24 12:56:24;;;;;;;10.65;6.93;;;11.50;99.90;;;;;;5004004;28;20554;-71
2023/01/24 12:58:55;;;;;;;8.85;6.28;;;11.30;99.90;;;;;;5023566;22;20491;-74
2023/01/24 13:01:27;;;;;;;11.43;6.25;;;11.20;99.90;;;;;;5021996;28;20046;-73
2023/01/24 13:04:23;;;;;;;8.85;5.88;;;11.30;99.90;;;;;;5025481;28;20044;-73
2023/01/24 13:07:38;;;;;;;8.02;6.30;;;11.30;99.90;;;;;;5031319;28;20370;-73
2023/01/24 13:10:24;;;;;;;10.00;6.40;;;11.20;99.90;;;;;;4957753;28;20512;-73
2023/01/24 13:12:54;;;;;;;8.75;6.10;;;11.40;99.90;;;;;;4987071;28;20050;-71
2023/01/24 13:16:02;;;;;;;8.88;5.90;;;11.50;99.90;;;;;;4997441;28;20104;-70
2023/01/24 13:18:56;;;;;;;10.65;6.20;;;11.40;99.90;;;;;;5006869;28;20128;-71
2023/01/24 13:21:48;;;;;;;12.02;6.30;;;11.40;99.90;;;;;;5005335;23;20053;-75
2023/01/24 13:24:29;;;;;;;7.97;5.18;;;11.30;99.90;;;;;;5012238;28;20691;-71
2023/01/24 13:27:15;;;;;;;8.35;5.75;;;11.10;99.90;;;;;;5001403;28;20037;-73
2023/01/24 13:30:05;;;;;;;9.50;6.22;;;11.30;99.90;;;;;;5008016;28;20044;-71
2023/01/24 13:32:38;;;;;;;7.82;5.95;;;11.20;99.90;;;;;;5016714;28;20166;-72
2023/01/24 13:35:19;;;;;;;8.25;5.45;;;11.10;99.90;;;;;;5016929;28;20436;-74
2023/01/24 13:38:17;;;;;;;9.02;6.30;;;11.10;99.90;;;;;;5013264;28;20058;-74
2023/01/24 13:41:08;;;;;;;8.75;5.90;;;10.90;99.90;;;;;;5003741;28;20050;-72
2023/01/24 13:44:02;;;;;;;9.93;6.45;;;11.00;99.90;;;;;;5006849;28;20119;-73
2023/01/24 13:46:45;;;;;;;10.65;7.15;;;10.90;99.90;;;;;;5000892;28;20133;-74
2023/01/24 13:49:31;;;;;;;7.70;6.13;;;10.90;99.90;;;;;;5001782;28;20088;-73
2023/01/24 13:52:00;;;;;;;9.88;7.20;;;10.80;99.90;;;;;;5009120;28;20131;-70
2023/01/24 13:54:39;;;;;;;10.82;7.15;;;10.80;99.90;;;;;;5001386;28;20052;-72
2023/01/24 13:57:21;;;;;;;9.60;7.22;;;10.80;99.90;;;;;;5016888;28;20401;-73
2023/01/24 14:00:02;;;;;;;10.73;7.55;;;10.70;99.90;;;;;;5021526;28;20061;-74
2023/01/24 14:02:30;;;;;;;11.40;8.13;;;10.70;99.90;;;;;;5017737;28;20033;-69